Father Pat — WDG2791 — position and weather

sailwx.info

Track history (hours):
 
Tides and Currents Weather Stations Pressure Air Temp Water Temp Dewpoint Dewpoint Depression Visibility Wind Speed Wind Dir Waves Ship Positions

Father Pat

Owner: Marquette Transportation Company Gulf-Inland, LLC, Jefferson, LA. More information available from US FCC via Universal Licensing System and Coast Guard Vessel Documentation Center.

Last reported at 2017-Jul-26 11:07 UTC. Time now 2017-Aug-22 07:24 UTC.
Position N 32°49' W 091°09'.
Warning: this ship's position is 26 days out of date.

Length 24 m; draft 2.9 m.

Type: Towing. MMSI: 367519320.

Date/timePositionNaut miles runAvg speedWind from/ knotsBaromVisibWave heightAir tempDewpointWater temp
2017-Jul-26 11:07N 32°49' W 091°09'1 4.7
2017-Jul-26 10:49N 32°48' W 091°09'2 5.2
2017-Jul-26 10:30N 32°46' W 091°09'5 3.9
2017-Jul-26 09:17N 32°44' W 091°04'7 3.8
2017-Jul-26 07:25N 32°38' W 091°09'1 3.5
2017-Jul-26 07:00N 32°37' W 091°09'0 0.2
2017-Jul-26 06:30N 32°37' W 091°09'2 4.0
2017-Jul-26 06:00N 32°35' W 091°08'2 5.0
2017-Jul-26 05:30N 32°33' W 091°06'3 5.0
2017-Jul-26 04:58N 32°30' W 091°07'2 5.3
2017-Jul-26 04:30N 32°28' W 091°06'3 5.5
2017-Jul-26 04:00N 32°26' W 091°03'3 5.4
2017-Jul-26 03:30N 32°25' W 091°01'2 4.5
2017-Jul-26 03:00N 32°23' W 090°60'2 3.9
2017-Jul-26 02:30N 32°21' W 090°60'3 5.7
2017-Jul-26 02:00N 32°21' W 090°56'2 4.9
2017-Jul-26 01:30N 32°19' W 090°54'3 5.6
2017-Jul-26 01:00N 32°17' W 090°56'3 5.2
2017-Jul-26 00:30N 32°15' W 090°58'2 4.8
2017-Jul-26 00:00N 32°13' W 090°59'3 5.3
2017-Jul-25 23:29N 32°10' W 090°60'3 5.3
2017-Jul-25 23:00N 32°08' W 091°01'2 4.8
2017-Jul-25 22:30N 32°08' W 091°03'3 5.3
2017-Jul-25 22:00N 32°07' W 091°07'  
2017-Jul-23 00:23N 29°56' W 093°02'2 5.2
2017-Jul-23 00:00N 29°56' W 093°04'3 5.2
2017-Jul-22 23:30N 29°56' W 093°07'2 4.9
2017-Jul-22 23:00N 29°56' W 093°10'2 4.9
2017-Jul-22 22:30N 29°58' W 093°11'2 4.9
2017-Jul-22 22:00N 29°60' W 093°13'2 4.4
2017-Jul-22 21:30N 30°02' W 093°15'2 4.6
2017-Jul-22 21:00N 30°04' W 093°16'2 4.0
2017-Jul-22 20:30N 30°05' W 093°18'1 1.2
2017-Jul-22 20:00N 30°06' W 093°18'0 0.0
2017-Jul-22 19:30N 30°06' W 093°18'0 0.0
2017-Jul-22 19:00N 30°06' W 093°18'0 0.0
2017-Jul-22 18:30N 30°06' W 093°18'0 0.0
2017-Jul-22 18:00N 30°06' W 093°18'0 0.0
2017-Jul-22 17:30N 30°06' W 093°18'0 0.0
2017-Jul-22 17:00N 30°06' W 093°18'0 0.0
2017-Jul-22 16:30N 30°06' W 093°18'0 0.0
2017-Jul-22 16:00N 30°06' W 093°18'2 4.3
2017-Jul-22 15:30N 30°05' W 093°20'2 3.4
2017-Jul-22 15:00N 30°04' W 093°22'0 0.0
2017-Jul-22 14:00N 30°04' W 093°22'0 0.0
2017-Jul-22 13:30N 30°04' W 093°22'0 0.0
2017-Jul-22 13:00N 30°04' W 093°22'0 0.1
2017-Jul-22 12:30N 30°04' W 093°22'0 0.2
2017-Jul-22 12:00N 30°04' W 093°22'0 0.1
2017-Jul-22 11:30N 30°04' W 093°21'0 0.1
2017-Jul-22 11:00N 30°04' W 093°21'1 1.4
2017-Jul-22 10:30N 30°04' W 093°21'2 3.0
2017-Jul-22 10:00N 30°05' W 093°20'1 2.2
2017-Jul-22 09:30N 30°06' W 093°19'0 0.1
2017-Jul-22 09:00N 30°06' W 093°19'0 0.0
2017-Jul-22 08:30N 30°06' W 093°19'0 0.7
2017-Jul-22 08:00N 30°06' W 093°18'2 4.1
2017-Jul-22 07:30N 30°05' W 093°17'1 2.0
2017-Jul-22 07:00N 30°04' W 093°16'0 0.2
2017-Jul-22 06:30N 30°04' W 093°16'0 0.0
2017-Jul-22 06:00N 30°04' W 093°16'0 0.0
2017-Jul-22 05:30N 30°04' W 093°16'1 1.4
2017-Jul-22 05:00N 30°03' W 093°16'2 3.4
2017-Jul-22 04:30N 30°02' W 093°15'2 3.3
2017-Jul-22 04:00N 30°01' W 093°14'2 3.8
2017-Jul-22 03:30N 29°59' W 093°12'2 3.9
2017-Jul-22 03:00N 29°58' W 093°11'2 3.8
2017-Jul-22 02:30N 29°56' W 093°10'2 3.6
2017-Jul-22 01:59N 29°56' W 093°07'  
Track history (hours):
 
Tides and Currents Weather Stations Pressure Air Temp Water Temp Dewpoint Dewpoint Depression Visibility Wind Speed Wind Dir Waves Ship Positions

Father Pat

Owner: Marquette Transportation Company Gulf-Inland, LLC, Jefferson, LA. More information available from US FCC via Universal Licensing System and Coast Guard Vessel Documentation Center.

Last reported at 2017-Jul-26 11:07 UTC. Time now 2017-Aug-22 07:24 UTC.
Position N 32°49' W 091°09'.
Warning: this ship's position is 26 days out of date.

Length 24 m; draft 2.9 m.

Type: Towing. MMSI: 367519320.

Date/timePositionNaut miles runAvg speedWind from/ knotsBaromVisibWave heightAir tempDewpointWater temp
2017-Jul-26 11:07N 32°49' W 091°09'1 4.7
2017-Jul-26 10:49N 32°48' W 091°09'2 5.2
2017-Jul-26 10:30N 32°46' W 091°09'5 3.9
2017-Jul-26 09:17N 32°44' W 091°04'7 3.8
2017-Jul-26 07:25N 32°38' W 091°09'1 3.5
2017-Jul-26 07:00N 32°37' W 091°09'0 0.2
2017-Jul-26 06:30N 32°37' W 091°09'2 4.0
2017-Jul-26 06:00N 32°35' W 091°08'2 5.0
2017-Jul-26 05:30N 32°33' W 091°06'3 5.0
2017-Jul-26 04:58N 32°30' W 091°07'2 5.3
2017-Jul-26 04:30N 32°28' W 091°06'3 5.5
2017-Jul-26 04:00N 32°26' W 091°03'3 5.4
2017-Jul-26 03:30N 32°25' W 091°01'2 4.5
2017-Jul-26 03:00N 32°23' W 090°60'2 3.9
2017-Jul-26 02:30N 32°21' W 090°60'3 5.7
2017-Jul-26 02:00N 32°21' W 090°56'2 4.9
2017-Jul-26 01:30N 32°19' W 090°54'3 5.6
2017-Jul-26 01:00N 32°17' W 090°56'3 5.2
2017-Jul-26 00:30N 32°15' W 090°58'2 4.8
2017-Jul-26 00:00N 32°13' W 090°59'3 5.3
2017-Jul-25 23:29N 32°10' W 090°60'3 5.3
2017-Jul-25 23:00N 32°08' W 091°01'2 4.8
2017-Jul-25 22:30N 32°08' W 091°03'3 5.3
2017-Jul-25 22:00N 32°07' W 091°07'  
2017-Jul-23 00:23N 29°56' W 093°02'2 5.2
2017-Jul-23 00:00N 29°56' W 093°04'3 5.2
2017-Jul-22 23:30N 29°56' W 093°07'2 4.9
2017-Jul-22 23:00N 29°56' W 093°10'2 4.9
2017-Jul-22 22:30N 29°58' W 093°11'2 4.9
2017-Jul-22 22:00N 29°60' W 093°13'2 4.4
2017-Jul-22 21:30N 30°02' W 093°15'2 4.6
2017-Jul-22 21:00N 30°04' W 093°16'2 4.0
2017-Jul-22 20:30N 30°05' W 093°18'1 1.2
2017-Jul-22 20:00N 30°06' W 093°18'0 0.0
2017-Jul-22 19:30N 30°06' W 093°18'0 0.0
2017-Jul-22 19:00N 30°06' W 093°18'0 0.0
2017-Jul-22 18:30N 30°06' W 093°18'0 0.0
2017-Jul-22 18:00N 30°06' W 093°18'0 0.0
2017-Jul-22 17:30N 30°06' W 093°18'0 0.0
2017-Jul-22 17:00N 30°06' W 093°18'0 0.0
2017-Jul-22 16:30N 30°06' W 093°18'0 0.0
2017-Jul-22 16:00N 30°06' W 093°18'2 4.3
2017-Jul-22 15:30N 30°05' W 093°20'2 3.4
2017-Jul-22 15:00N 30°04' W 093°22'0 0.0
2017-Jul-22 14:00N 30°04' W 093°22'0 0.0
2017-Jul-22 13:30N 30°04' W 093°22'0 0.0
2017-Jul-22 13:00N 30°04' W 093°22'0 0.1
2017-Jul-22 12:30N 30°04' W 093°22'0 0.2
2017-Jul-22 12:00N 30°04' W 093°22'0 0.1
2017-Jul-22 11:30N 30°04' W 093°21'0 0.1
2017-Jul-22 11:00N 30°04' W 093°21'1 1.4
2017-Jul-22 10:30N 30°04' W 093°21'2 3.0
2017-Jul-22 10:00N 30°05' W 093°20'1 2.2
2017-Jul-22 09:30N 30°06' W 093°19'0 0.1
2017-Jul-22 09:00N 30°06' W 093°19'0 0.0
2017-Jul-22 08:30N 30°06' W 093°19'0 0.7
2017-Jul-22 08:00N 30°06' W 093°18'2 4.1
2017-Jul-22 07:30N 30°05' W 093°17'1 2.0
2017-Jul-22 07:00N 30°04' W 093°16'0 0.2
2017-Jul-22 06:30N 30°04' W 093°16'0 0.0
2017-Jul-22 06:00N 30°04' W 093°16'0 0.0
2017-Jul-22 05:30N 30°04' W 093°16'1 1.4
2017-Jul-22 05:00N 30°03' W 093°16'2 3.4
2017-Jul-22 04:30N 30°02' W 093°15'2 3.3
2017-Jul-22 04:00N 30°01' W 093°14'2 3.8
2017-Jul-22 03:30N 29°59' W 093°12'2 3.9
2017-Jul-22 03:00N 29°58' W 093°11'2 3.8
2017-Jul-22 02:30N 29°56' W 093°10'2 3.6
2017-Jul-22 01:59N 29°56' W 093°07'  

Dump ship's entire track history